createdAt,value
2018-04-24T00:00:20.714Z,58.70
2018-04-24T00:02:48.355Z,58.80
2018-04-24T00:05:15.931Z,58.90
2018-04-24T00:07:43.412Z,58.90
2018-04-24T00:10:11.934Z,59.20
2018-04-24T00:12:39.382Z,59.20
2018-04-24T00:15:06.837Z,59.40
2018-04-24T00:17:34.339Z,59.40
2018-04-24T00:20:01.852Z,59.40
2018-04-24T00:22:29.327Z,59.40
2018-04-24T00:24:56.773Z,59.50
2018-04-24T00:27:24.239Z,59.50
2018-04-24T00:29:51.771Z,59.50
2018-04-24T00:32:19.214Z,59.50
2018-04-24T00:34:47.459Z,59.70
2018-04-24T00:37:15.019Z,59.70
2018-04-24T00:39:42.592Z,59.70
2018-04-24T00:42:10.038Z,59.70
2018-04-24T00:44:37.506Z,59.90
2018-04-24T00:47:04.955Z,59.80
2018-04-24T00:49:32.422Z,59.90
2018-04-24T00:51:59.875Z,60.00
2018-04-24T00:54:27.350Z,60.10
2018-04-24T00:56:54.831Z,60.20
2018-04-24T00:59:23.067Z,60.50
2018-04-24T01:01:50.507Z,60.50
2018-04-24T01:04:17.979Z,60.60
2018-04-24T01:06:45.464Z,60.60
2018-04-24T01:09:12.921Z,60.60
2018-04-24T01:11:41.174Z,60.40
2018-04-24T01:14:08.627Z,60.40
2018-04-24T01:16:36.081Z,60.40
2018-04-24T01:19:03.543Z,60.50
2018-04-24T01:21:30.994Z,60.50
2018-04-24T01:23:58.459Z,60.60
2018-04-24T01:26:25.953Z,60.50
2018-04-24T01:28:53.399Z,60.50
2018-04-24T01:31:20.855Z,60.60
2018-04-24T01:33:48.326Z,60.80
2018-04-24T01:36:15.779Z,60.70
2018-04-24T01:38:43.251Z,60.80
2018-04-24T01:41:11.487Z,60.90
2018-04-24T01:43:38.947Z,61.70
2018-04-24T01:46:06.409Z,61.00
2018-04-24T01:48:33.874Z,61.00
2018-04-24T01:51:01.343Z,61.00
2018-04-24T01:53:28.807Z,61.10
2018-04-24T01:55:56.252Z,61.10
2018-04-24T01:58:23.715Z,61.10
2018-04-24T02:00:51.959Z,61.40
2018-04-24T02:03:19.428Z,61.40
2018-04-24T02:05:46.901Z,61.40
2018-04-24T02:08:14.355Z,61.40
2018-04-24T02:10:41.845Z,61.80
2018-04-24T02:13:09.367Z,61.70
2018-04-24T02:15:36.819Z,61.90
2018-04-24T02:18:04.282Z,62.10
2018-04-24T02:20:31.779Z,62.10
2018-04-24T02:22:59.226Z,62.20
2018-04-24T02:25:27.459Z,62.30
2018-04-24T02:27:54.931Z,62.30
2018-04-24T02:30:22.384Z,62.30
2018-04-24T02:32:49.833Z,62.30
2018-04-24T02:35:17.323Z,62.30
2018-04-24T02:37:44.765Z,62.40
2018-04-24T02:40:12.220Z,62.40
2018-04-24T02:42:39.692Z,62.50
2018-04-24T02:45:07.143Z,62.60
2018-04-24T02:47:34.612Z,62.50
2018-04-24T02:50:02.090Z,62.60
2018-04-24T02:52:30.309Z,62.70
2018-04-24T02:54:57.777Z,62.60
2018-04-24T02:57:25.408Z,63.50
2018-04-24T02:59:52.912Z,62.60
2018-04-24T03:02:20.382Z,62.60
2018-04-24T03:04:47.860Z,62.70
2018-04-24T03:07:16.080Z,62.80
2018-04-24T03:09:43.522Z,62.70
2018-04-24T03:12:11.012Z,62.70
2018-04-24T03:14:38.487Z,62.70
2018-04-24T03:17:05.966Z,62.60
2018-04-24T03:19:34.195Z,62.50
2018-04-24T03:22:01.642Z,62.50
2018-04-24T03:24:29.132Z,62.50
2018-04-24T03:26:56.563Z,62.70
2018-04-24T03:29:24.084Z,62.70
2018-04-24T03:31:52.317Z,62.80
2018-04-24T03:34:19.768Z,62.80
2018-04-24T03:36:47.251Z,62.80
2018-04-24T03:39:14.726Z,62.80
2018-04-24T03:41:43.000Z,62.90
2018-04-24T03:44:11.244Z,63.00
2018-04-24T03:46:38.711Z,63.00
2018-04-24T03:49:06.197Z,63.00
2018-04-24T03:51:34.417Z,63.00
2018-04-24T03:54:01.913Z,62.90
2018-04-24T03:56:29.463Z,63.80
2018-04-24T03:58:57.747Z,63.20
2018-04-24T04:01:25.216Z,63.20
2018-04-24T04:03:52.698Z,63.20
2018-04-24T04:06:20.141Z,63.30
2018-04-24T04:08:47.776Z,63.40
2018-04-24T04:11:15.267Z,63.40
2018-04-24T04:13:42.714Z,63.60
2018-04-24T04:16:10.956Z,63.70
2018-04-24T04:18:50.302Z,63.70
2018-04-24T04:21:30.351Z,64.10
2018-04-24T04:24:09.710Z,64.10
2018-04-24T04:26:37.170Z,64.20
2018-04-24T04:29:05.393Z,64.50
2018-04-24T04:31:34.034Z,64.40
2018-04-24T04:34:02.375Z,64.60
2018-04-24T04:36:29.960Z,64.60
2018-04-24T04:38:57.487Z,64.70
2018-04-24T04:41:25.055Z,64.80
2018-04-24T04:43:52.835Z,64.20
2018-04-24T04:46:20.569Z,64.60
2018-04-24T04:48:48.176Z,64.50
2018-04-24T04:51:15.626Z,64.40
2018-04-24T04:53:43.188Z,64.40
2018-04-24T04:56:10.754Z,64.30
2018-04-24T04:58:38.303Z,64.20
2018-04-24T05:01:05.784Z,64.30
2018-04-24T05:03:33.257Z,64.30
2018-04-24T05:06:00.714Z,64.40
2018-04-24T05:08:28.338Z,64.30
2018-04-24T05:10:55.791Z,64.40
2018-04-24T05:13:23.455Z,64.40
2018-04-24T05:15:50.924Z,64.20
2018-04-24T05:18:19.236Z,64.30
2018-04-24T05:20:46.858Z,64.30
2018-04-24T05:23:14.323Z,64.30
2018-04-24T05:25:41.855Z,64.40
2018-04-24T05:28:09.322Z,64.20
2018-04-24T05:30:36.843Z,64.40
2018-04-24T05:33:04.712Z,64.20
2018-04-24T05:35:32.181Z,64.10
2018-04-24T05:37:59.626Z,64.10
2018-04-24T05:40:27.264Z,64.00
2018-04-24T05:42:54.735Z,64.10
2018-04-24T05:45:23.073Z,64.00
2018-04-24T05:47:50.495Z,64.00
2018-04-24T05:50:18.117Z,63.90
2018-04-24T05:52:45.968Z,63.80
2018-04-24T05:55:13.434Z,63.90
2018-04-24T05:57:40.887Z,63.60
2018-04-24T06:00:08.354Z,63.50
2018-04-24T06:02:35.819Z,63.40
2018-04-24T06:05:04.073Z,63.30
2018-04-24T06:07:31.531Z,63.10
2018-04-24T06:09:58.994Z,63.20
2018-04-24T06:12:26.482Z,63.30
2018-04-24T06:14:54.713Z,63.20
2018-04-24T06:17:22.286Z,63.20
2018-04-24T06:19:49.797Z,63.30
2018-04-24T06:22:17.293Z,63.10
2018-04-24T06:24:44.763Z,63.00
2018-04-24T06:27:12.336Z,62.80
2018-04-24T06:29:39.843Z,62.90
2018-04-24T06:32:07.300Z,62.80
2018-04-24T06:34:34.771Z,63.00
2018-04-24T06:37:02.253Z,62.80
2018-04-24T06:39:29.731Z,62.80
2018-04-24T06:41:57.185Z,62.80
2018-04-24T06:44:24.678Z,62.60
2018-04-24T06:46:52.131Z,62.50
2018-04-24T06:49:19.623Z,62.60
2018-04-24T06:51:47.129Z,62.60
2018-04-24T06:54:15.368Z,63.30
2018-04-24T06:56:42.827Z,62.40
2018-04-24T06:59:10.281Z,62.40
2018-04-24T07:01:37.769Z,62.40
2018-04-24T07:04:05.243Z,62.30
2018-04-24T07:06:33.455Z,62.20
2018-04-24T07:09:00.911Z,62.20
2018-04-24T07:11:28.396Z,61.80
2018-04-24T07:13:55.862Z,61.80
2018-04-24T07:16:23.332Z,61.50
2018-04-24T07:18:50.821Z,61.60
2018-04-24T07:21:19.088Z,61.50
2018-04-24T07:23:47.324Z,62.30
2018-04-24T07:26:14.784Z,61.50
2018-04-24T07:28:42.234Z,61.50
2018-04-24T07:31:09.708Z,61.20
2018-04-24T07:33:37.150Z,61.10
2018-04-24T07:36:04.627Z,61.00
2018-04-24T07:38:32.101Z,60.80
2018-04-24T07:40:59.868Z,60.60
2018-04-24T07:43:27.268Z,60.40
2018-04-24T07:45:54.710Z,60.30
2018-04-24T07:48:22.186Z,59.90
2018-04-24T07:50:49.695Z,60.00
2018-04-24T07:53:17.187Z,60.10
2018-04-24T07:55:44.641Z,60.20
2018-04-24T07:58:12.218Z,60.10
2018-04-24T08:00:39.676Z,60.10
2018-04-24T08:03:07.162Z,60.00
2018-04-24T08:05:34.623Z,60.00
2018-04-24T08:08:02.087Z,60.20
2018-04-24T08:10:29.573Z,60.30
2018-04-24T08:12:57.817Z,60.40
2018-04-24T08:15:25.309Z,60.40
2018-04-24T08:17:53.550Z,60.40
2018-04-24T08:20:21.889Z,60.40
2018-04-24T08:22:49.394Z,60.20
2018-04-24T08:25:16.812Z,60.30
2018-04-24T08:27:44.300Z,60.20
2018-04-24T08:30:11.798Z,60.00
2018-04-24T08:32:39.361Z,59.90
2018-04-24T08:35:07.607Z,60.20
2018-04-24T08:37:35.056Z,60.20
2018-04-24T08:40:02.564Z,60.60
2018-04-24T08:42:30.792Z,60.50
2018-04-24T08:44:58.274Z,60.50
2018-04-24T08:47:25.724Z,60.50
2018-04-24T08:49:53.227Z,60.70
2018-04-24T08:52:20.681Z,61.30
2018-04-24T08:54:48.132Z,61.40
2018-04-24T08:57:15.623Z,61.20
2018-04-24T08:59:43.084Z,61.30
2018-04-24T09:02:10.568Z,61.60
2018-04-24T09:04:38.032Z,61.90
2018-04-24T09:07:05.495Z,62.00
2018-04-24T09:09:32.958Z,61.50
2018-04-24T09:12:00.416Z,61.50
2018-04-24T09:14:27.887Z,61.80
2018-04-24T09:16:55.340Z,61.90
2018-04-24T09:19:23.575Z,61.30
2018-04-24T09:21:51.041Z,61.30
2018-04-24T09:24:18.524Z,61.10
2018-04-24T09:26:45.971Z,61.10
2018-04-24T09:29:13.493Z,61.60
2018-04-24T09:31:43.921Z,60.50
2018-04-24T09:34:11.401Z,60.70
2018-04-24T09:36:38.895Z,60.90
2018-04-24T09:39:06.383Z,61.10
2018-04-24T09:41:34.611Z,60.70
2018-04-24T09:44:02.101Z,60.50
2018-04-24T09:46:29.552Z,60.00
2018-04-24T09:48:57.192Z,60.50
2018-04-24T09:51:24.624Z,60.50
2018-04-24T09:53:52.095Z,60.30
2018-04-24T09:56:19.552Z,60.50
2018-04-24T09:58:47.030Z,60.70
2018-04-24T10:01:14.509Z,60.40
2018-04-24T10:03:41.964Z,60.70
2018-04-24T10:06:09.445Z,60.90
2018-04-24T10:08:36.927Z,61.20
2018-04-24T10:11:04.447Z,61.10
2018-04-24T10:13:32.632Z,60.30
2018-04-24T10:16:00.065Z,60.70
2018-04-24T10:18:27.523Z,60.70
2018-04-24T10:20:55.004Z,60.50
2018-04-24T10:23:22.456Z,60.30
2018-04-24T10:25:49.927Z,60.00
2018-04-24T10:28:17.388Z,60.00
2018-04-24T10:30:44.858Z,59.90
2018-04-24T10:33:12.472Z,60.00
2018-04-24T10:35:39.931Z,59.90
2018-04-24T10:38:07.411Z,60.00
2018-04-24T10:40:34.946Z,60.00
2018-04-24T10:43:02.445Z,59.90
2018-04-24T10:45:29.891Z,60.10
2018-04-24T10:47:57.443Z,59.80
2018-04-24T10:50:24.874Z,60.00
2018-04-24T10:52:52.354Z,60.30
2018-04-24T10:55:20.592Z,60.50
2018-04-24T10:57:48.044Z,60.30
2018-04-24T11:00:15.531Z,60.60
2018-04-24T11:02:42.979Z,60.80
2018-04-24T11:05:10.443Z,61.00
2018-04-24T11:07:37.924Z,61.00
2018-04-24T11:10:05.505Z,61.10
2018-04-24T11:12:32.972Z,61.10
2018-04-24T11:15:00.417Z,61.30
2018-04-24T11:17:27.903Z,61.30
2018-04-24T11:19:55.376Z,61.30
2018-04-24T11:22:22.824Z,61.20
2018-04-24T11:24:50.300Z,61.30
2018-04-24T11:27:17.802Z,61.60
2018-04-24T11:29:45.250Z,61.80
2018-04-24T11:32:13.515Z,61.60
2018-04-24T11:34:40.990Z,61.60
2018-04-24T11:37:08.479Z,61.70
2018-04-24T11:39:36.560Z,61.90
2018-04-24T11:42:04.053Z,62.20
2018-04-24T11:44:31.503Z,62.50
2018-04-24T11:46:58.972Z,62.80
2018-04-24T11:49:26.431Z,62.80
2018-04-24T11:51:53.915Z,62.90
2018-04-24T11:54:21.430Z,62.70
2018-04-24T11:56:48.875Z,62.80
2018-04-24T11:59:16.355Z,62.90
2018-04-24T12:01:43.866Z,63.10
2018-04-24T12:04:11.362Z,63.20
2018-04-24T12:06:38.836Z,63.00
2018-04-24T12:09:06.325Z,62.80
2018-04-24T12:11:33.779Z,62.90
2018-04-24T12:14:02.023Z,62.90
2018-04-24T12:16:29.499Z,62.80
2018-04-24T12:18:57.721Z,62.80
2018-04-24T12:21:25.176Z,62.80
2018-04-24T12:23:52.659Z,62.70
2018-04-24T12:26:20.885Z,62.10
2018-04-24T12:28:48.340Z,62.10
2018-04-24T12:31:15.908Z,61.20
2018-04-24T12:33:43.392Z,60.80
2018-04-24T12:36:10.869Z,60.70
2018-04-24T12:38:38.344Z,60.70
2018-04-24T12:41:05.842Z,60.30
2018-04-24T12:43:33.295Z,60.40
2018-04-24T12:46:00.747Z,60.00
2018-04-24T12:48:28.994Z,59.80
2018-04-24T12:50:56.478Z,59.80
2018-04-24T12:53:23.961Z,59.60
2018-04-24T12:55:51.416Z,59.40
2018-04-24T12:58:18.900Z,59.50
2018-04-24T13:00:46.436Z,59.20
2018-04-24T13:03:13.883Z,59.10
2018-04-24T13:05:41.374Z,58.70
2018-04-24T13:08:08.835Z,58.10
2018-04-24T13:10:36.334Z,56.50
2018-04-24T13:13:03.835Z,56.40
2018-04-24T13:15:31.294Z,56.30
2018-04-24T13:17:58.781Z,56.20
2018-04-24T13:20:26.231Z,55.80
2018-04-24T13:22:53.712Z,56.00
2018-04-24T13:25:21.188Z,56.00
2018-04-24T13:27:49.431Z,55.30
2018-04-24T13:30:16.957Z,55.30
2018-04-24T13:32:44.435Z,55.30
2018-04-24T13:35:11.978Z,55.10
2018-04-24T13:37:39.426Z,55.30
2018-04-24T13:40:06.968Z,55.10
2018-04-24T13:42:35.271Z,54.90
2018-04-24T13:45:02.678Z,54.70
2018-04-24T13:47:30.155Z,55.10
2018-04-24T13:49:58.378Z,55.10
2018-04-24T13:52:25.936Z,55.00
2018-04-24T13:54:53.400Z,55.00
2018-04-24T13:57:20.891Z,55.00
2018-04-24T13:59:48.334Z,54.90
2018-04-24T14:02:15.792Z,53.60
2018-04-24T14:04:43.267Z,52.70
2018-04-24T14:07:10.785Z,52.60
2018-04-24T14:09:38.256Z,51.90
2018-04-24T14:12:05.741Z,49.90
2018-04-24T14:14:33.226Z,50.80
2018-04-24T14:17:01.469Z,50.00
2018-04-24T14:19:28.939Z,50.00
2018-04-24T14:21:56.447Z,48.50
2018-04-24T14:24:24.007Z,48.30
2018-04-24T14:26:51.519Z,48.60
2018-04-24T14:29:19.000Z,49.30
2018-04-24T14:31:47.251Z,50.40
2018-04-24T14:34:14.701Z,50.40
2018-04-24T14:36:42.189Z,49.90
2018-04-24T14:39:10.454Z,47.30
2018-04-24T14:41:37.941Z,47.30
2018-04-24T14:44:05.420Z,46.60
2018-04-24T14:46:32.891Z,46.70
2018-04-24T14:49:00.401Z,47.50
2018-04-24T14:51:28.641Z,48.70
2018-04-24T14:53:56.108Z,48.70
2018-04-24T14:56:23.629Z,48.60
2018-04-24T14:58:51.147Z,48.80
2018-04-24T15:01:19.399Z,48.90
2018-04-24T15:03:46.868Z,48.80
2018-04-24T15:06:14.385Z,48.70
2018-04-24T15:08:41.984Z,48.90
2018-04-24T15:11:09.469Z,49.60
2018-04-24T15:13:37.720Z,49.50
2018-04-24T15:16:05.177Z,49.50
2018-04-24T15:18:32.686Z,48.90
2018-04-24T15:21:00.194Z,48.50
2018-04-24T15:23:27.730Z,47.50
2018-04-24T15:25:55.232Z,47.40
2018-04-24T15:28:23.476Z,48.00
2018-04-24T15:30:50.956Z,48.00
2018-04-24T15:33:18.458Z,48.60
2018-04-24T15:35:45.969Z,49.20
2018-04-24T15:38:13.423Z,50.00
2018-04-24T15:40:40.907Z,50.20
2018-04-24T15:43:09.145Z,50.20
2018-04-24T15:45:36.632Z,50.20
2018-04-24T15:48:04.107Z,50.30
2018-04-24T15:50:31.568Z,50.90
2018-04-24T15:52:59.020Z,51.00
2018-04-24T15:55:26.489Z,51.10
2018-04-24T15:57:54.005Z,51.40
2018-04-24T16:00:21.478Z,51.60
2018-04-24T16:02:48.980Z,51.70
2018-04-24T16:05:16.421Z,52.00
2018-04-24T16:07:43.896Z,52.30
2018-04-24T16:10:11.474Z,52.60
2018-04-24T16:12:38.915Z,52.80
2018-04-24T16:15:06.426Z,52.70
2018-04-24T16:17:33.879Z,52.80
2018-04-24T16:20:01.375Z,52.80
2018-04-24T16:22:28.830Z,52.60
2018-04-24T16:24:56.331Z,52.80
2018-04-24T16:27:23.841Z,52.90
2018-04-24T16:29:51.556Z,52.80
2018-04-24T16:32:18.949Z,52.80
2018-04-24T16:34:46.533Z,53.10
2018-04-24T16:37:14.220Z,53.10
2018-04-24T16:39:41.826Z,53.10
2018-04-24T16:42:09.448Z,53.20
2018-04-24T16:44:36.990Z,53.10
2018-04-24T16:47:04.554Z,53.20
2018-04-24T16:49:32.187Z,53.20
2018-04-24T16:51:59.651Z,53.30
2018-04-24T16:54:27.211Z,53.50
2018-04-24T16:56:54.613Z,53.70
2018-04-24T16:59:22.208Z,53.70
2018-04-24T17:01:49.898Z,53.90
2018-04-24T17:04:18.188Z,53.80
2018-04-24T17:06:45.740Z,53.80
2018-04-24T17:09:13.219Z,54.00
2018-04-24T17:11:40.723Z,54.00
2018-04-24T17:14:08.205Z,54.10
2018-04-24T17:16:36.445Z,54.10
2018-04-24T17:19:03.990Z,54.10
2018-04-24T17:21:31.618Z,54.00
2018-04-24T17:23:59.244Z,53.80
2018-04-24T17:26:26.699Z,53.90
2018-04-24T17:28:54.215Z,53.90
2018-04-24T17:31:21.840Z,54.10
2018-04-24T17:33:49.322Z,54.30
2018-04-24T17:36:16.842Z,54.40
2018-04-24T17:38:44.445Z,54.50
2018-04-24T17:41:11.999Z,54.70
2018-04-24T17:43:39.500Z,54.70
2018-04-24T17:46:07.207Z,54.70
2018-04-24T17:48:34.699Z,55.10
2018-04-24T17:51:02.160Z,54.60
2018-04-24T17:53:29.640Z,54.70
2018-04-24T17:55:57.098Z,54.80
2018-04-24T17:58:24.585Z,54.80
2018-04-24T18:00:52.836Z,55.10
2018-04-24T18:03:20.381Z,55.60
2018-04-24T18:05:47.861Z,54.90
2018-04-24T18:08:15.423Z,54.90
2018-04-24T18:10:42.923Z,54.90
2018-04-24T18:13:10.429Z,54.90
2018-04-24T18:15:37.924Z,55.00
2018-04-24T18:18:05.383Z,55.10
2018-04-24T18:20:32.918Z,55.30
2018-04-24T18:23:00.409Z,55.40
2018-04-24T18:25:28.643Z,55.60
2018-04-24T18:27:56.103Z,55.60
2018-04-24T18:30:24.361Z,55.70
2018-04-24T18:32:52.589Z,56.30
2018-04-24T18:35:20.069Z,55.70
2018-04-24T18:37:47.528Z,55.80
2018-04-24T18:40:15.109Z,55.90
2018-04-24T18:42:42.545Z,56.00
2018-04-24T18:45:10.002Z,56.10
2018-04-24T18:47:37.480Z,56.10
2018-04-24T18:50:04.959Z,56.20
2018-04-24T18:52:32.416Z,56.30
2018-04-24T18:55:00.556Z,56.30
2018-04-24T18:57:28.049Z,56.40
2018-04-24T18:59:55.512Z,56.40
2018-04-24T19:02:24.037Z,56.60
2018-04-24T19:04:51.654Z,56.50
2018-04-24T19:07:19.377Z,56.50
2018-04-24T19:09:46.896Z,56.50
2018-04-24T19:12:14.371Z,56.40
2018-04-24T19:14:42.591Z,56.40
2018-04-24T19:17:10.062Z,57.00
2018-04-24T19:19:37.566Z,56.50
2018-04-24T19:22:05.807Z,56.60
2018-04-24T19:24:39.806Z,56.60
2018-04-24T19:27:08.046Z,56.60
2018-04-24T19:29:35.523Z,56.60
2018-04-24T19:32:08.746Z,56.80
2018-04-24T19:34:36.202Z,56.90
2018-04-24T19:37:03.691Z,56.90
2018-04-24T19:39:37.491Z,56.90
2018-04-24T19:42:04.974Z,56.90
2018-04-24T19:44:33.207Z,57.10
2018-04-24T19:47:00.667Z,57.00
2018-04-24T19:49:34.580Z,57.20
2018-04-24T19:52:01.993Z,57.20
2018-04-24T19:54:29.478Z,57.20
2018-04-24T19:56:56.934Z,57.30
2018-04-24T19:59:24.400Z,57.50
2018-04-24T20:01:51.878Z,57.50
2018-04-24T20:04:19.360Z,57.40
2018-04-24T20:06:47.588Z,57.40
2018-04-24T20:09:15.059Z,57.40
2018-04-24T20:11:42.540Z,57.50
2018-04-24T20:14:10.025Z,57.50
2018-04-24T20:16:37.515Z,57.60
2018-04-24T20:19:04.968Z,57.60
2018-04-24T20:21:32.424Z,57.70
2018-04-24T20:23:59.898Z,57.80
2018-04-24T20:26:27.355Z,57.70
2018-04-24T20:28:54.832Z,57.80
2018-04-24T20:31:22.327Z,57.90
2018-04-24T20:33:50.566Z,57.90
2018-04-24T20:36:18.024Z,57.90
2018-04-24T20:38:45.547Z,58.00
2018-04-24T20:41:13.773Z,58.10
2018-04-24T20:43:42.003Z,58.70
2018-04-24T20:46:09.451Z,58.20
2018-04-24T20:48:36.932Z,58.20
2018-04-24T20:51:04.407Z,58.30
2018-04-24T20:53:32.718Z,58.30
2018-04-24T20:56:00.181Z,58.40
2018-04-24T20:58:28.403Z,58.50
2018-04-24T21:00:55.955Z,58.40
2018-04-24T21:03:23.392Z,58.50
2018-04-24T21:05:50.871Z,58.60
2018-04-24T21:08:18.319Z,58.70
2018-04-24T21:10:45.799Z,58.80
2018-04-24T21:13:13.291Z,58.70
2018-04-24T21:15:40.719Z,58.70
2018-04-24T21:18:08.208Z,58.70
2018-04-24T21:20:35.668Z,58.70
2018-04-24T21:23:03.123Z,58.70
2018-04-24T21:25:30.610Z,58.70
2018-04-24T21:27:58.088Z,58.80
2018-04-24T21:30:25.691Z,59.00
2018-04-24T21:32:53.163Z,59.00
2018-04-24T21:35:20.658Z,59.10
2018-04-24T21:37:48.108Z,59.10
2018-04-24T21:40:15.582Z,59.10
2018-04-24T21:42:43.075Z,59.10
2018-04-24T21:45:10.553Z,59.20
2018-04-24T21:47:38.788Z,59.80
2018-04-24T21:50:06.267Z,59.20
2018-04-24T21:52:33.728Z,59.20
2018-04-24T21:55:01.219Z,59.30
2018-04-24T21:57:29.452Z,59.50
2018-04-24T21:59:56.939Z,59.40
2018-04-24T22:02:24.416Z,59.50
2018-04-24T22:04:52.638Z,59.50
2018-04-24T22:07:20.137Z,59.50
2018-04-24T22:09:48.355Z,59.60
2018-04-24T22:12:15.815Z,59.60
2018-04-24T22:14:43.288Z,59.70
2018-04-24T22:17:10.763Z,59.70
2018-04-24T22:19:38.235Z,59.90
2018-04-24T22:22:05.711Z,60.00
2018-04-24T22:24:33.154Z,60.20
2018-04-24T22:27:00.714Z,60.20
2018-04-24T22:29:28.155Z,60.40
2018-04-24T22:31:55.603Z,60.60
2018-04-24T22:34:23.075Z,61.00
2018-04-24T22:36:50.562Z,61.20
2018-04-24T22:39:18.788Z,61.50
2018-04-24T22:41:46.275Z,61.50
2018-04-24T22:44:13.760Z,61.60
2018-04-24T22:46:41.987Z,61.90
2018-04-24T22:49:09.551Z,61.90
2018-04-24T22:51:36.999Z,62.10
2018-04-24T22:54:04.456Z,62.30
2018-04-24T22:56:31.989Z,62.30
2018-04-24T22:58:59.463Z,62.40
2018-04-24T23:01:26.920Z,62.50
2018-04-24T23:03:54.400Z,62.70
2018-04-24T23:06:21.880Z,62.80
2018-04-24T23:08:49.343Z,63.00
2018-04-24T23:11:29.420Z,62.60
2018-04-24T23:14:08.771Z,63.10
2018-04-24T23:16:48.156Z,63.20
2018-04-24T23:19:27.461Z,63.30
2018-04-24T23:21:54.480Z,63.40
2018-04-24T23:24:21.967Z,63.50
2018-04-24T23:26:49.441Z,64.40
2018-04-24T23:29:16.924Z,63.80
2018-04-24T23:31:44.392Z,63.80
2018-04-24T23:34:12.632Z,64.10
2018-04-24T23:36:40.124Z,64.10
2018-04-24T23:39:07.575Z,64.10
2018-04-24T23:41:35.032Z,64.20
2018-04-24T23:44:02.511Z,64.30
2018-04-24T23:46:30.757Z,64.50
2018-04-24T23:48:58.207Z,64.50
2018-04-24T23:51:25.819Z,64.60
2018-04-24T23:53:53.267Z,64.60
2018-04-24T23:56:21.523Z,64.90
2018-04-24T23:58:48.983Z,64.90
